Terminal Aerodrome Forecast
Issued by NWS Paducah, KY

Home | Current Version | Previous Version | Text Only | Print | Product List | Glossary On
Versions: 1 2 3 4 5 6 7 8 9 10 11 12 13 14 15 16
703
FTUS43 KPAH 221727
TAFEVV
TAF
KEVV 221727Z 2218/2318 22005KT P6SM SCT050 BKN090
     FM230000 VRB03KT P6SM SCT090 BKN250
     FM230600 00000KT 4SM BR SCT250
      TEMPO 2308/2312 2SM BR
     FM231400 16004KT P6SM SCT025=

USA.gov is the U.S. government's official web portal to all federal, state and local government web resources and services.